createdAt,value
2019-05-07T00:01:51.527Z,96996.15
2019-05-07T00:05:53.893Z,96993.09
2019-05-07T00:09:56.902Z,96988.20
2019-05-07T00:13:58.801Z,96987.55
2019-05-07T00:18:02.982Z,96982.36
2019-05-07T00:22:04.742Z,96978.14
2019-05-07T00:26:06.629Z,96978.95
2019-05-07T00:30:09.239Z,96982.41
2019-05-07T00:34:12.640Z,96980.47
2019-05-07T00:38:16.933Z,96978.84
2019-05-07T00:42:32.807Z,96981.48
2019-05-07T00:46:35.227Z,96980.51
2019-05-07T00:50:38.782Z,96976.29
2019-05-07T00:54:42.268Z,96974.16
2019-05-07T00:58:44.321Z,96976.13
2019-05-07T01:02:47.501Z,96894.02
2019-05-07T01:06:49.402Z,96968.02
2019-05-07T01:10:52.844Z,96966.87
2019-05-07T01:14:55.016Z,96969.51
2019-05-07T01:18:57.145Z,96970.96
2019-05-07T01:22:59.066Z,96974.04
2019-05-07T01:27:04.739Z,96976.03
2019-05-07T01:31:06.615Z,96973.09
2019-05-07T01:35:13.276Z,96971.33
2019-05-07T01:39:15.218Z,96975.75
2019-05-07T01:43:18.097Z,96975.59
2019-05-07T01:47:20.002Z,96973.66
2019-05-07T01:51:22.320Z,96964.72
2019-05-07T01:55:24.296Z,96968.97
2019-05-07T01:59:26.422Z,96974.16
2019-05-07T02:03:32.950Z,96971.58
2019-05-07T02:07:36.521Z,96969.95
2019-05-07T02:11:42.447Z,96962.45
2019-05-07T02:15:57.430Z,96967.83
2019-05-07T02:19:48.042Z,96967.33
2019-05-07T02:23:52.167Z,96964.06
2019-05-07T02:27:53.545Z,96967.34
2019-05-07T02:31:55.471Z,96970.25
2019-05-07T02:35:58.151Z,96965.05
2019-05-07T02:40:04.438Z,96962.77
2019-05-07T02:44:06.926Z,96960.84
2019-05-07T02:48:09.324Z,96959.85
2019-05-07T02:52:13.829Z,96953.03
2019-05-07T02:56:15.735Z,96951.73
2019-05-07T03:00:19.545Z,96955.78
2019-05-07T03:04:24.619Z,96956.44
2019-05-07T03:08:27.601Z,96961.16
2019-05-07T03:12:33.265Z,96959.52
2019-05-07T03:16:42.573Z,96960.83
2019-05-07T03:20:46.042Z,96961.47
2019-05-07T03:24:52.699Z,96961.81
2019-05-07T03:28:55.155Z,96954.31
2019-05-07T03:33:07.930Z,96963.45
2019-05-07T03:37:13.534Z,96960.18
2019-05-07T03:41:15.070Z,96959.19
2019-05-07T03:45:23.049Z,96959.84
2019-05-07T03:49:29.409Z,96961.48
2019-05-07T03:53:33.862Z,96961.31
2019-05-07T03:57:34.982Z,96966.02
2019-05-07T04:01:36.871Z,96969.30
2019-05-07T04:05:38.797Z,96966.05
2019-05-07T04:09:43.484Z,96966.03
2019-05-07T04:13:44.523Z,96962.14
2019-05-07T04:17:46.453Z,96968.27
2019-05-07T04:21:48.358Z,96964.48
2019-05-07T04:25:53.197Z,96965.95
2019-05-07T04:29:55.494Z,96970.67
2019-05-07T04:33:58.989Z,96973.77
2019-05-07T04:38:06.161Z,96969.21
2019-05-07T04:42:05.191Z,96968.88
2019-05-07T04:46:07.099Z,96969.81
2019-05-07T04:50:13.953Z,96969.41
2019-05-07T04:54:15.074Z,96971.30
2019-05-07T04:58:16.960Z,96970.36
2019-05-07T05:02:23.057Z,96976.24
2019-05-07T05:06:25.047Z,96974.60
2019-05-07T05:10:27.005Z,96980.78
2019-05-07T05:14:28.945Z,96976.14
2019-05-07T05:18:32.817Z,96976.42
2019-05-07T05:22:39.602Z,96980.89
2019-05-07T05:26:41.984Z,96978.84
2019-05-07T05:30:46.943Z,96983.96
2019-05-07T05:34:48.840Z,96979.92
2019-05-07T05:38:52.808Z,96981.72
2019-05-07T05:43:04.919Z,96989.73
2019-05-07T05:47:07.770Z,96988.31
2019-05-07T05:51:17.057Z,96990.19
2019-05-07T05:55:19.619Z,96987.03
2019-05-07T05:59:47.966Z,96992.64
2019-05-07T06:03:43.106Z,96991.70
2019-05-07T06:07:46.687Z,96995.34
2019-05-07T06:11:51.999Z,96988.63
2019-05-07T06:15:58.783Z,96982.59
2019-05-07T06:20:08.263Z,96952.78
2019-05-07T06:24:11.919Z,96981.77
2019-05-07T06:28:14.868Z,96983.00
2019-05-07T06:32:19.385Z,96980.63
2019-05-07T06:36:22.234Z,96983.42
2019-05-07T06:40:29.137Z,96980.69
2019-05-07T06:44:27.935Z,96978.41
2019-05-07T06:48:40.842Z,96984.13
2019-05-07T06:52:35.087Z,96985.97
2019-05-07T06:56:36.998Z,96979.78
2019-05-07T07:00:42.285Z,96982.95
2019-05-07T07:04:46.920Z,96973.05
2019-05-07T07:08:56.141Z,96970.71
2019-05-07T07:12:58.111Z,96970.27
2019-05-07T07:17:02.230Z,96962.73
2019-05-07T07:21:03.964Z,96959.81
2019-05-07T07:25:07.368Z,96951.27
2019-05-07T07:29:12.707Z,96950.41
2019-05-07T07:33:16.643Z,96942.94
2019-05-07T07:37:20.195Z,96941.71
2019-05-07T07:41:38.727Z,96939.33
2019-05-07T07:45:42.008Z,96936.30
2019-05-07T07:49:44.373Z,96933.84
2019-05-07T07:53:46.273Z,96928.34
2019-05-07T07:58:08.163Z,96930.33
2019-05-07T08:02:22.814Z,96931.53
2019-05-07T08:06:25.651Z,96923.94
2019-05-07T08:10:27.536Z,96919.00
2019-05-07T08:14:29.437Z,96917.33
2019-05-07T08:18:32.781Z,96918.94
2019-05-07T08:22:34.980Z,96921.24
2019-05-07T08:26:36.886Z,96921.95
2019-05-07T08:30:38.844Z,96920.33
2019-05-07T08:34:54.535Z,96914.30
2019-05-07T08:38:57.406Z,96916.92
2019-05-07T08:42:59.713Z,96908.25
2019-05-07T08:47:07.312Z,96901.72
2019-05-07T08:51:09.242Z,96907.77
2019-05-07T08:55:12.751Z,96905.94
2019-05-07T08:59:15.787Z,96898.77
2019-05-07T09:03:22.543Z,96893.00
2019-05-07T09:07:23.521Z,96894.50
2019-05-07T09:11:25.453Z,96893.29
2019-05-07T09:15:27.387Z,96883.66
2019-05-07T09:19:29.299Z,96883.19
2019-05-07T09:23:31.951Z,96883.69
2019-05-07T09:27:42.431Z,96878.75
2019-05-07T09:31:47.237Z,96877.16
2019-05-07T09:35:52.699Z,96877.13
2019-05-07T09:39:54.575Z,96875.01
2019-05-07T09:43:58.599Z,96865.28
2019-05-07T09:48:02.603Z,96862.09
2019-05-07T09:52:06.042Z,96867.25
2019-05-07T09:56:08.018Z,96863.19
2019-05-07T10:00:12.369Z,96863.94
2019-05-07T10:04:14.663Z,96862.53
2019-05-07T10:08:16.650Z,96856.88
2019-05-07T10:12:18.307Z,96854.02
2019-05-07T10:16:34.174Z,96856.20
2019-05-07T10:20:36.256Z,96858.21
2019-05-07T10:24:38.691Z,96856.32
2019-05-07T10:28:42.389Z,96852.59
2019-05-07T10:32:44.439Z,96852.30
2019-05-07T10:36:46.344Z,96849.09
2019-05-07T10:40:48.382Z,96843.08
2019-05-07T10:44:54.642Z,96839.09
2019-05-07T10:49:01.991Z,96840.16
2019-05-07T10:53:05.019Z,96836.66
2019-05-07T10:57:06.996Z,96839.98
2019-05-07T11:01:08.966Z,96837.41
2019-05-07T11:05:12.956Z,96839.36
2019-05-07T11:09:14.953Z,96827.36
2019-05-07T11:13:16.868Z,96827.08
2019-05-07T11:17:22.381Z,96824.42
2019-05-07T11:21:30.224Z,96812.97
2019-05-07T11:25:35.313Z,96824.94
2019-05-07T11:29:37.225Z,96808.24
2019-05-07T11:33:41.675Z,96813.12
2019-05-07T11:37:44.389Z,96806.25
2019-05-07T11:42:04.130Z,96804.70
2019-05-07T11:46:07.699Z,96724.19
2019-05-07T11:50:18.153Z,96799.08
2019-05-07T11:54:20.111Z,96789.54
2019-05-07T11:58:22.886Z,96716.02
2019-05-07T12:02:24.808Z,96782.16
2019-05-07T12:06:26.711Z,96778.38
2019-05-07T12:10:28.626Z,96779.06
2019-05-07T12:14:32.516Z,96773.57
2019-05-07T12:18:34.135Z,96765.48
2019-05-07T12:22:48.460Z,96762.63
2019-05-07T12:26:52.243Z,96770.64
2019-05-07T12:30:56.489Z,96761.52
2019-05-07T12:35:02.289Z,96759.13
2019-05-07T12:39:12.717Z,96760.59
2019-05-07T12:43:14.904Z,96755.39
2019-05-07T12:47:16.814Z,96748.02
2019-05-07T12:51:31.656Z,96741.19
2019-05-07T12:55:26.615Z,96747.80
2019-05-07T12:59:28.680Z,96745.28
2019-05-07T13:03:32.294Z,96740.44
2019-05-07T13:07:34.090Z,96732.64
2019-05-07T13:11:35.996Z,96727.98
2019-05-07T13:15:37.925Z,96731.56
2019-05-07T13:19:41.870Z,96729.92
2019-05-07T13:23:43.520Z,96724.61
2019-05-07T13:27:45.430Z,96730.06
2019-05-07T13:31:53.913Z,96722.11
2019-05-07T13:35:54.205Z,96730.08
2019-05-07T13:40:02.669Z,96718.47
2019-05-07T13:44:06.434Z,96719.28
2019-05-07T13:48:12.925Z,96720.03
2019-05-07T13:52:15.976Z,96716.41
2019-05-07T13:56:18.321Z,96708.23
2019-05-07T14:00:28.564Z,96710.30
2019-05-07T14:04:32.523Z,96707.45
2019-05-07T14:08:36.026Z,96696.30
2019-05-07T14:12:38.130Z,96694.89
2019-05-07T14:16:44.682Z,96687.67
2019-05-07T14:20:43.846Z,96684.08
2019-05-07T14:24:45.729Z,96679.09
2019-05-07T14:28:48.546Z,96675.41
2019-05-07T14:32:53.375Z,96676.48
2019-05-07T14:36:56.949Z,96607.61
2019-05-07T14:41:00.158Z,96667.18
2019-05-07T14:45:05.460Z,96672.27
2019-05-07T14:49:07.545Z,96663.28
2019-05-07T14:53:11.793Z,96663.41
2019-05-07T14:57:13.174Z,96659.03
2019-05-07T15:01:15.381Z,96660.25
2019-05-07T15:05:17.731Z,96659.12
2019-05-07T15:09:19.800Z,96657.78
2019-05-07T15:13:22.150Z,96659.67
2019-05-07T15:17:26.735Z,96653.80
2019-05-07T15:21:28.795Z,96650.80
2019-05-07T15:25:31.995Z,96649.75
2019-05-07T15:29:34.062Z,96655.39
2019-05-07T15:33:36.079Z,96651.92
2019-05-07T15:37:38.060Z,96650.38
2019-05-07T15:41:42.335Z,96646.50
2019-05-07T15:45:43.843Z,96648.70
2019-05-07T15:49:46.727Z,96648.11
2019-05-07T15:53:55.966Z,96649.16
2019-05-07T15:57:58.714Z,96643.83
2019-05-07T16:02:02.906Z,96640.18
2019-05-07T16:06:05.296Z,96639.41
2019-05-07T16:10:07.443Z,96636.46
2019-05-07T16:14:17.182Z,96639.39
2019-05-07T16:18:29.862Z,96642.30
2019-05-07T16:22:33.408Z,96638.30
2019-05-07T16:26:35.327Z,96633.48
2019-05-07T16:30:37.244Z,96635.48
2019-05-07T16:34:39.190Z,96635.04
2019-05-07T16:38:41.979Z,96625.98
2019-05-07T16:42:43.944Z,96623.32
2019-05-07T16:46:46.821Z,96629.91
2019-05-07T16:50:48.737Z,96625.31
2019-05-07T16:54:52.202Z,96627.19
2019-05-07T16:59:02.810Z,96620.45
2019-05-07T17:03:07.573Z,96622.61
2019-05-07T17:07:13.203Z,96613.98
2019-05-07T17:11:14.727Z,96619.21
2019-05-07T17:15:17.173Z,96618.16
2019-05-07T17:19:19.764Z,96617.63
2019-05-07T17:23:22.634Z,96610.72
2019-05-07T17:27:24.635Z,96611.91
2019-05-07T17:31:26.546Z,96605.76
2019-05-07T17:35:28.446Z,96611.33
2019-05-07T17:39:32.135Z,96609.14
2019-05-07T17:43:34.053Z,96610.09
2019-05-07T17:47:35.995Z,96614.97
2019-05-07T17:51:44.547Z,96615.33
2019-05-07T17:55:46.512Z,96613.56
2019-05-07T17:59:48.688Z,96613.45
2019-05-07T18:03:52.040Z,96616.19
2019-05-07T18:07:53.972Z,96612.54
2019-05-07T18:11:55.887Z,96614.75
2019-05-07T18:15:59.480Z,96612.82
2019-05-07T18:20:02.507Z,96604.99
2019-05-07T18:24:13.789Z,96610.66
2019-05-07T18:28:09.354Z,96610.00
2019-05-07T18:32:12.441Z,96604.65
2019-05-07T18:36:14.454Z,96602.32
2019-05-07T18:40:16.356Z,96602.35
2019-05-07T18:44:18.682Z,96606.19
2019-05-07T18:48:22.394Z,96606.32
2019-05-07T18:52:24.358Z,96614.86
2019-05-07T18:56:26.243Z,96606.51
2019-05-07T19:00:31.645Z,96608.84
2019-05-07T19:04:33.443Z,96607.11
2019-05-07T19:08:36.050Z,96606.08
2019-05-07T19:12:41.974Z,96612.78
2019-05-07T19:16:43.331Z,96606.84
2019-05-07T19:20:45.237Z,96608.16
2019-05-07T19:24:48.162Z,96606.97
2019-05-07T19:28:50.239Z,96608.33
2019-05-07T19:32:52.407Z,96607.30
2019-05-07T19:36:54.282Z,96618.88
2019-05-07T19:40:56.185Z,96621.98
2019-05-07T19:44:59.133Z,96624.73
2019-05-07T19:49:02.758Z,96625.19
2019-05-07T19:53:04.918Z,96620.59
2019-05-07T19:57:07.652Z,96621.73
2019-05-07T20:01:12.137Z,96621.58
2019-05-07T20:05:14.238Z,96615.66
2019-05-07T20:09:18.725Z,96610.84
2019-05-07T20:13:20.619Z,96609.53
2019-05-07T20:17:22.500Z,96617.39
2019-05-07T20:21:24.481Z,96614.16
2019-05-07T20:25:26.367Z,96612.76
2019-05-07T20:29:28.265Z,96606.80
2019-05-07T20:33:32.542Z,96606.84
2019-05-07T20:37:33.791Z,96603.89
2019-05-07T20:41:35.925Z,96604.60
2019-05-07T20:45:38.086Z,96597.53
2019-05-07T20:49:39.969Z,96593.25
2019-05-07T20:53:59.004Z,96594.78
2019-05-07T20:58:03.133Z,96590.66
2019-05-07T21:02:05.688Z,96594.59
2019-05-07T21:06:07.615Z,96590.38
2019-05-07T21:10:09.630Z,96597.23
2019-05-07T21:14:12.100Z,96592.83
2019-05-07T21:18:14.223Z,96591.39
2019-05-07T21:22:16.087Z,96584.63
2019-05-07T21:26:17.969Z,96587.85
2019-05-07T21:30:22.189Z,96592.70
2019-05-07T21:34:24.262Z,96593.09
2019-05-07T21:38:26.160Z,96594.30
2019-05-07T21:42:28.054Z,96589.92
2019-05-07T21:46:29.953Z,96592.32
2019-05-07T21:50:32.169Z,96581.00
2019-05-07T21:54:43.502Z,96581.42
2019-05-07T21:58:49.383Z,96579.39
2019-05-07T22:02:52.708Z,96575.34
2019-05-07T22:06:55.520Z,96574.89
2019-05-07T22:10:57.507Z,96570.05
2019-05-07T22:14:59.405Z,96578.08
2019-05-07T22:19:02.820Z,96567.52
2019-05-07T22:23:04.767Z,96561.38
2019-05-07T22:27:06.805Z,96553.20
2019-05-07T22:31:13.335Z,96550.16
2019-05-07T22:35:25.596Z,96544.84
2019-05-07T22:39:32.715Z,96546.73
2019-05-07T22:43:36.351Z,96547.07
2019-05-07T22:47:38.233Z,96537.53
2019-05-07T22:51:40.131Z,96541.92
2019-05-07T22:55:42.032Z,96529.28
2019-05-07T22:59:43.932Z,96522.61
2019-05-07T23:03:45.886Z,96516.36
2019-05-07T23:07:49.090Z,96518.95
2019-05-07T23:11:52.593Z,96512.22
2019-05-07T23:15:54.579Z,96507.82
2019-05-07T23:19:56.483Z,96505.05
2019-05-07T23:23:58.364Z,96497.81
2019-05-07T23:28:04.856Z,96495.28
2019-05-07T23:32:03.882Z,96495.13
2019-05-07T23:36:06.934Z,96490.47
2019-05-07T23:40:25.566Z,96486.74
2019-05-07T23:44:27.464Z,96487.11
2019-05-07T23:48:29.377Z,96488.37
2019-05-07T23:52:31.275Z,96487.89
2019-05-07T23:56:33.167Z,96484.86
